createdAt,value
2022-09-28T00:02:13.601Z,99630.61
2022-09-28T00:04:43.428Z,99631.14
2022-09-28T00:07:13.180Z,99630.53
2022-09-28T00:09:43.084Z,99633.67
2022-09-28T00:12:12.843Z,99628.69
2022-09-28T00:14:44.213Z,99623.91
2022-09-28T00:17:15.693Z,99623.11
2022-09-28T00:19:45.912Z,99624.13
2022-09-28T00:22:15.649Z,99634.22
2022-09-28T00:24:45.454Z,99622.33
2022-09-28T00:27:15.198Z,99626.05
2022-09-28T00:29:44.974Z,99622.58
2022-09-28T00:32:15.525Z,99626.73
2022-09-28T00:34:48.892Z,99621.05
2022-09-28T00:37:20.234Z,99628.09
2022-09-28T00:39:50.510Z,99625.06
2022-09-28T00:42:25.763Z,99625.06
2022-09-28T00:44:59.300Z,99625.92
2022-09-28T00:47:40.894Z,99629.31
2022-09-28T00:50:14.668Z,99629.39
2022-09-28T00:52:50.120Z,99627.42
2022-09-28T00:55:22.800Z,99623.57
2022-09-28T00:57:55.855Z,99623.57
2022-09-28T01:00:26.666Z,99629.91
2022-09-28T01:02:56.410Z,99625.11
2022-09-28T01:05:27.600Z,99616.70
2022-09-28T01:07:58.317Z,99614.81
2022-09-28T01:10:31.065Z,99608.68
2022-09-28T01:13:00.874Z,99606.48
2022-09-28T01:15:32.791Z,99608.30
2022-09-28T01:18:15.110Z,99611.56
2022-09-28T01:20:54.252Z,99608.48
2022-09-28T01:23:48.970Z,99610.80
2022-09-28T01:26:27.691Z,99606.42
2022-09-28T01:29:00.493Z,99610.56
2022-09-28T01:31:33.304Z,99603.03
2022-09-28T01:34:06.711Z,99611.55
2022-09-28T01:36:39.949Z,99613.81
2022-09-28T01:39:15.823Z,99609.58
2022-09-28T01:41:48.570Z,99613.04
2022-09-28T01:44:21.437Z,99607.00
2022-09-28T01:46:53.605Z,99615.21
2022-09-28T01:49:32.313Z,99609.61
2022-09-28T01:52:13.898Z,99610.91
2022-09-28T01:54:55.371Z,99609.56
2022-09-28T01:57:33.773Z,99614.47
2022-09-28T02:00:08.171Z,99608.28
2022-09-28T02:02:48.942Z,99607.33
2022-09-28T02:05:23.413Z,99609.69
2022-09-28T02:08:08.050Z,99600.59
2022-09-28T02:10:46.289Z,99600.59
2022-09-28T02:13:24.837Z,99599.39
2022-09-28T02:18:47.005Z,99597.73
2022-09-28T02:21:20.567Z,99593.80
2022-09-28T02:24:05.856Z,99604.37
2022-09-28T02:26:41.339Z,99605.39
2022-09-28T02:29:11.295Z,99600.79
2022-09-28T02:31:41.263Z,99598.75
2022-09-28T02:34:12.009Z,99603.16
2022-09-28T02:36:41.808Z,99600.30
2022-09-28T02:39:17.773Z,99599.72
2022-09-28T02:42:08.440Z,99610.08
2022-09-28T02:44:52.895Z,99600.66
2022-09-28T02:47:31.733Z,99605.66
2022-09-28T02:50:21.425Z,99605.48
2022-09-28T02:53:09.052Z,99606.54
2022-09-28T02:56:04.139Z,99601.10
2022-09-28T02:58:56.190Z,99603.19
2022-09-28T03:01:53.727Z,99603.12
2022-09-28T03:04:38.356Z,99611.13
2022-09-28T03:07:12.677Z,99601.48
2022-09-28T03:09:45.725Z,99599.95
2022-09-28T03:12:18.471Z,99598.78
2022-09-28T03:14:48.883Z,99602.47
2022-09-28T03:17:21.292Z,99602.13
2022-09-28T03:19:51.052Z,99606.04
2022-09-28T03:22:20.521Z,99604.51
2022-09-28T03:24:50.298Z,99601.23
2022-09-28T03:27:20.165Z,99606.03
2022-09-28T03:29:49.986Z,99607.16
2022-09-28T03:32:19.545Z,99606.08
2022-09-28T03:34:49.656Z,99606.64
2022-09-28T03:37:19.953Z,99606.64
2022-09-28T03:39:49.684Z,99616.39
2022-09-28T03:42:19.323Z,99617.52
2022-09-28T03:44:50.795Z,99615.84
2022-09-28T03:47:21.306Z,99608.12
2022-09-28T03:49:51.024Z,99604.06
2022-09-28T03:52:20.463Z,99609.38
2022-09-28T03:54:50.283Z,99614.80
2022-09-28T03:57:20.322Z,99614.28
2022-09-28T03:59:50.065Z,99609.97
2022-09-28T04:02:19.935Z,99613.92
2022-09-28T04:04:49.694Z,99612.98
2022-09-28T04:07:19.710Z,99608.68
2022-09-28T04:09:49.477Z,99608.68
2022-09-28T04:12:19.772Z,99605.59
2022-09-28T04:14:50.889Z,99610.57
2022-09-28T04:17:20.722Z,99604.83
2022-09-28T04:19:50.700Z,99605.59
2022-09-28T04:22:30.937Z,99605.59
2022-09-28T04:25:00.725Z,99608.83
2022-09-28T04:27:48.316Z,99606.34
2022-09-28T04:30:18.603Z,99607.14
2022-09-28T04:32:48.717Z,99599.90
2022-09-28T04:35:19.182Z,99607.95
2022-09-28T04:37:48.997Z,99604.30
2022-09-28T04:40:18.811Z,99614.52
2022-09-28T04:42:55.775Z,99615.10
2022-09-28T04:45:27.365Z,99616.81
2022-09-28T04:47:58.746Z,99614.40
2022-09-28T04:50:49.429Z,99611.00
2022-09-28T04:53:20.931Z,99618.89
2022-09-28T04:56:02.087Z,99623.69
2022-09-28T04:58:32.630Z,99619.92
2022-09-28T05:01:06.813Z,99620.14
2022-09-28T05:03:54.226Z,99622.15
2022-09-28T05:06:27.112Z,99626.98
2022-09-28T05:08:59.223Z,99629.55
2022-09-28T05:11:28.950Z,99627.43
2022-09-28T05:13:59.597Z,99630.91
2022-09-28T05:16:30.908Z,99619.28
2022-09-28T05:19:18.812Z,99620.00
2022-09-28T05:21:49.103Z,99621.20
2022-09-28T05:24:18.828Z,99627.27
2022-09-28T05:26:50.660Z,99630.97
2022-09-28T05:29:21.161Z,99624.87
2022-09-28T05:32:08.725Z,99632.88
2022-09-28T05:34:40.169Z,99632.59
2022-09-28T05:37:11.344Z,99635.20
2022-09-28T05:39:41.071Z,99631.50
2022-09-28T05:42:11.656Z,99634.22
2022-09-28T05:44:41.461Z,99635.58
2022-09-28T05:47:11.543Z,99633.25
2022-09-28T05:49:42.381Z,99632.30
2022-09-28T05:52:13.187Z,99635.49
2022-09-28T05:54:43.041Z,99640.65
2022-09-28T05:57:13.477Z,99639.04
2022-09-28T05:59:43.490Z,99646.25
2022-09-28T06:02:13.377Z,99646.62
2022-09-28T06:04:44.454Z,99646.44
2022-09-28T06:07:14.468Z,99646.27
2022-09-28T06:09:44.501Z,99652.64
2022-09-28T06:12:21.412Z,99649.73
2022-09-28T06:14:52.849Z,99648.03
2022-09-28T06:17:23.995Z,99658.34
2022-09-28T06:19:55.785Z,99660.30
2022-09-28T06:22:29.682Z,99656.83
2022-09-28T06:25:04.371Z,99664.19
2022-09-28T06:27:34.829Z,99657.84
2022-09-28T06:30:06.615Z,99656.96
2022-09-28T06:32:36.363Z,99662.68
2022-09-28T06:35:09.872Z,99660.41
2022-09-28T06:37:39.750Z,99665.59
2022-09-28T06:40:11.308Z,99674.22
2022-09-28T06:42:41.193Z,99674.22
2022-09-28T06:45:23.240Z,99669.85
2022-09-28T06:47:57.460Z,99677.67
2022-09-28T06:50:34.218Z,99672.03
2022-09-28T06:53:21.993Z,99673.78
2022-09-28T06:55:53.444Z,99678.27
2022-09-28T06:58:24.011Z,99678.27
2022-09-28T07:00:54.098Z,99678.41
2022-09-28T07:03:24.237Z,99677.50
2022-09-28T07:06:01.979Z,99683.78
2022-09-28T07:08:56.813Z,99678.19
2022-09-28T07:11:24.342Z,99683.86
2022-09-28T07:14:22.311Z,99676.14
2022-09-28T07:17:09.374Z,99676.33
2022-09-28T07:19:16.469Z,99679.24
2022-09-28T07:21:55.161Z,99686.80
2022-09-28T07:24:17.960Z,99683.48
2022-09-28T07:27:05.739Z,99680.91
2022-09-28T07:29:37.177Z,99693.09
2022-09-28T07:32:22.031Z,99693.09
2022-09-28T07:35:04.229Z,99701.27
2022-09-28T07:37:37.757Z,99703.09
2022-09-28T07:40:27.696Z,99709.91
2022-09-28T07:42:59.261Z,99717.61
2022-09-28T07:45:30.082Z,99717.61
2022-09-28T07:47:59.942Z,99707.31
2022-09-28T07:50:34.205Z,99715.20
2022-09-28T07:53:20.342Z,99720.63
2022-09-28T07:56:04.493Z,99726.47
2022-09-28T07:58:40.003Z,99732.64
2022-09-28T08:01:23.367Z,99733.29
2022-09-28T08:03:55.159Z,99729.39
2022-09-28T08:06:25.136Z,99738.84
2022-09-28T08:08:56.231Z,99732.09
2022-09-28T08:11:27.654Z,99734.89
2022-09-28T08:14:14.965Z,99740.92
2022-09-28T08:16:51.998Z,99741.64
2022-09-28T08:19:22.052Z,99741.64
2022-09-28T08:21:52.248Z,99746.90
2022-09-28T08:24:23.838Z,99746.94
2022-09-28T08:26:55.497Z,99743.38
2022-09-28T08:29:26.933Z,99749.33
2022-09-28T08:32:01.974Z,99754.38
2022-09-28T08:34:40.167Z,99746.70
2022-09-28T08:37:20.582Z,99747.82
2022-09-28T08:40:19.721Z,99746.27
2022-09-28T08:43:03.059Z,99747.88
2022-09-28T08:45:46.350Z,99750.30
2022-09-28T08:48:41.410Z,99753.18
2022-09-28T08:51:33.451Z,99749.03
2022-09-28T08:54:14.801Z,99749.03
2022-09-28T08:56:55.525Z,99757.33
2022-09-28T08:59:28.689Z,99756.17
2022-09-28T09:02:05.303Z,99764.13
2022-09-28T09:04:35.822Z,99756.64
2022-09-28T09:07:44.400Z,99756.34
2022-09-28T09:10:30.151Z,99737.52
2022-09-28T09:13:37.697Z,99737.52
2022-09-28T09:16:24.145Z,99767.84
2022-09-28T09:19:18.940Z,99760.52
2022-09-28T09:22:18.705Z,99769.45
2022-09-28T09:27:38.990Z,99773.37
2022-09-28T09:30:20.175Z,99773.61
2022-09-28T09:33:07.644Z,99777.69
2022-09-28T09:35:47.640Z,99771.25
2022-09-28T09:38:48.902Z,99771.25
2022-09-28T09:41:48.331Z,99778.59
2022-09-28T09:44:56.935Z,99781.36
2022-09-28T09:47:46.448Z,99788.13
2022-09-28T09:50:35.114Z,99785.92
2022-09-28T09:53:14.314Z,99790.29
2022-09-28T09:55:46.899Z,99791.10
2022-09-28T09:58:33.094Z,99792.16
2022-09-28T10:01:10.325Z,99792.80
2022-09-28T10:03:44.807Z,99791.88
2022-09-28T10:06:19.256Z,99789.64
2022-09-28T10:08:52.040Z,99785.03
2022-09-28T10:11:28.081Z,99787.73
2022-09-28T10:13:58.342Z,99786.28
2022-09-28T10:16:42.947Z,99784.26
2022-09-28T10:19:14.803Z,99783.93
2022-09-28T10:22:05.050Z,99784.84
2022-09-28T10:24:45.239Z,99780.80
2022-09-28T10:27:18.567Z,99783.62
2022-09-28T10:29:54.720Z,99777.27
2022-09-28T10:32:30.433Z,99786.38
2022-09-28T10:35:22.504Z,99779.75
2022-09-28T10:38:05.077Z,99778.09
2022-09-28T10:40:43.388Z,99784.03
2022-09-28T10:43:36.514Z,99787.52
2022-09-28T10:46:12.917Z,99781.18
2022-09-28T10:48:58.436Z,99783.86
2022-09-28T10:51:47.240Z,99784.97
2022-09-28T10:54:21.561Z,99784.97
2022-09-28T10:56:54.982Z,99776.97
2022-09-28T10:59:32.018Z,99776.16
2022-09-28T11:02:12.351Z,99785.25
2022-09-28T11:04:44.479Z,99773.42
2022-09-28T11:07:20.288Z,99780.83
2022-09-28T11:09:51.520Z,99776.16
2022-09-28T11:12:23.817Z,99783.01
2022-09-28T11:15:00.050Z,99779.95
2022-09-28T11:17:36.566Z,99779.20
2022-09-28T11:20:29.163Z,99783.60
2022-09-28T11:23:03.452Z,99778.93
2022-09-28T11:25:34.444Z,99772.05
2022-09-28T11:28:06.565Z,99770.39
2022-09-28T11:30:51.185Z,99768.06
2022-09-28T11:33:46.181Z,99754.37
2022-09-28T11:36:41.542Z,99769.24
2022-09-28T11:39:17.943Z,99770.09
2022-09-28T11:42:01.361Z,99774.23
2022-09-28T11:44:43.239Z,99766.11
2022-09-28T11:47:31.877Z,99773.84
2022-09-28T11:50:10.851Z,99770.39
2022-09-28T11:52:46.452Z,99763.73
2022-09-28T11:55:17.134Z,99764.90
2022-09-28T11:57:53.139Z,99754.66
2022-09-28T12:00:23.627Z,99756.48
2022-09-28T12:03:01.041Z,99767.04
2022-09-28T12:05:36.794Z,99772.06
2022-09-28T12:08:09.664Z,99773.11
2022-09-28T12:11:13.686Z,99769.55
2022-09-28T12:13:51.414Z,99769.26
2022-09-28T12:17:03.739Z,99757.34
2022-09-28T12:19:21.861Z,99761.74
2022-09-28T12:21:54.636Z,99763.75
2022-09-28T12:24:36.307Z,99763.75
2022-09-28T12:27:17.607Z,99757.17
2022-09-28T12:29:53.102Z,99746.14
2022-09-28T12:32:40.648Z,99746.14
2022-09-28T12:35:16.781Z,99762.97
2022-09-28T12:37:53.931Z,99750.66
2022-09-28T12:40:23.670Z,99750.66
2022-09-28T12:43:00.041Z,99755.00
2022-09-28T12:46:06.817Z,99760.73
2022-09-28T12:48:39.506Z,99755.78
2022-09-28T12:51:30.252Z,99757.48
2022-09-28T12:54:11.697Z,99754.75
2022-09-28T12:56:44.748Z,99749.73
2022-09-28T12:59:20.816Z,99749.90
2022-09-28T13:01:56.193Z,99735.78
2022-09-28T13:04:47.279Z,99735.78
2022-09-28T13:07:25.904Z,99757.42
2022-09-28T13:09:58.657Z,99768.11
2022-09-28T13:12:37.311Z,99759.80
2022-09-28T13:15:17.152Z,99762.08
2022-09-28T13:17:59.091Z,99758.47
2022-09-28T13:20:35.770Z,99761.64
2022-09-28T13:23:20.125Z,99764.17
2022-09-28T13:26:04.949Z,99758.53
2022-09-28T13:28:37.288Z,99770.48
2022-09-28T13:31:08.815Z,99776.62
2022-09-28T13:33:41.558Z,99779.92
2022-09-28T13:36:32.598Z,99780.73
2022-09-28T13:39:02.535Z,99777.36
2022-09-28T13:41:37.635Z,99777.36
2022-09-28T13:44:21.200Z,99770.08
2022-09-28T13:47:20.608Z,99762.63
2022-09-28T13:49:57.875Z,99758.51
2022-09-28T13:52:42.567Z,99755.31
2022-09-28T13:55:36.061Z,99755.31
2022-09-28T13:58:25.851Z,99771.89
2022-09-28T14:01:10.583Z,99781.29
2022-09-28T14:03:46.056Z,99795.09
2022-09-28T14:06:30.401Z,99785.70
2022-09-28T14:09:18.056Z,99783.38
2022-09-28T14:12:01.905Z,99786.00
2022-09-28T14:14:35.101Z,99795.17
2022-09-28T14:17:26.000Z,99813.28
2022-09-28T14:20:07.520Z,99837.85
2022-09-28T14:22:40.544Z,99880.73
2022-09-28T14:25:27.643Z,99880.73
2022-09-28T14:28:04.832Z,99898.69
2022-09-28T14:30:46.557Z,99891.22
2022-09-28T14:33:25.477Z,99891.22
2022-09-28T14:36:06.592Z,99883.47
2022-09-28T14:38:59.472Z,99872.20
2022-09-28T14:41:35.247Z,99869.47
2022-09-28T14:46:57.998Z,99854.77
2022-09-28T14:49:36.879Z,99853.88
2022-09-28T14:52:11.282Z,99852.73
2022-09-28T14:54:45.207Z,99850.62
2022-09-28T14:57:23.514Z,99853.23
2022-09-28T14:59:53.879Z,99860.30
2022-09-28T15:02:29.558Z,99869.08
2022-09-28T15:05:02.579Z,99861.29
2022-09-28T15:07:46.180Z,99864.67
2022-09-28T15:10:29.542Z,99865.30
2022-09-28T15:13:02.191Z,99863.38
2022-09-28T15:15:38.443Z,99870.08
2022-09-28T15:18:21.183Z,99868.25
2022-09-28T15:20:51.856Z,99867.30
2022-09-28T15:23:36.803Z,99862.77
2022-09-28T15:26:10.208Z,99870.50
2022-09-28T15:28:42.995Z,99872.46
2022-09-28T15:31:18.370Z,99867.92
2022-09-28T15:34:06.210Z,99869.99
2022-09-28T15:36:46.799Z,99867.96
2022-09-28T15:39:28.617Z,99874.81
2022-09-28T15:41:59.357Z,99880.58
2022-09-28T15:44:35.155Z,99874.61
2022-09-28T15:47:09.794Z,99879.25
2022-09-28T15:50:00.354Z,99887.58
2022-09-28T15:52:42.157Z,99883.36
2022-09-28T15:55:23.850Z,99883.36
2022-09-28T15:58:08.738Z,99884.46
2022-09-28T16:00:38.250Z,99887.18
2022-09-28T16:03:13.622Z,99890.30
2022-09-28T16:05:49.412Z,99889.38
2022-09-28T16:08:25.370Z,99890.66
2022-09-28T16:11:13.369Z,99887.81
2022-09-28T16:13:52.746Z,99886.13
2022-09-28T16:16:28.095Z,99886.13
2022-09-28T16:19:00.935Z,99889.73
2022-09-28T16:21:46.086Z,99889.52
2022-09-28T16:24:25.062Z,99882.78
2022-09-28T16:27:03.167Z,99892.01
2022-09-28T16:29:42.800Z,99899.65
2022-09-28T16:32:27.203Z,99899.65
2022-09-28T16:35:25.342Z,99894.97
2022-09-28T16:38:13.696Z,99894.97
2022-09-28T16:40:47.126Z,99890.43
2022-09-28T16:43:24.618Z,99893.27
2022-09-28T16:45:58.109Z,99892.16
2022-09-28T16:48:31.105Z,99897.62
2022-09-28T16:51:00.842Z,99904.25
2022-09-28T16:53:48.450Z,99908.03
2022-09-28T16:56:18.442Z,99900.28
2022-09-28T16:58:50.171Z,99900.88
2022-09-28T17:01:20.921Z,99900.88
2022-09-28T17:03:50.904Z,99905.23
2022-09-28T17:06:25.093Z,99907.51
2022-09-28T17:08:56.537Z,99902.28
2022-09-28T17:11:26.322Z,99910.33
2022-09-28T17:13:57.695Z,99912.11
2022-09-28T17:19:02.512Z,99918.45
2022-09-28T17:21:32.611Z,99925.37
2022-09-28T17:24:02.546Z,99925.72
2022-09-28T17:26:34.448Z,99927.73
2022-09-28T17:29:06.104Z,99926.20
2022-09-28T17:31:36.295Z,99934.62
2022-09-28T17:34:08.171Z,99934.62
2022-09-28T17:36:38.470Z,99934.63
2022-09-28T17:39:10.076Z,99930.88
2022-09-28T17:41:40.668Z,99930.88
2022-09-28T17:44:13.372Z,99935.59
2022-09-28T17:46:49.765Z,99935.59
2022-09-28T17:49:19.548Z,99943.61
2022-09-28T17:51:50.240Z,99943.61
2022-09-28T17:54:21.189Z,99932.08
2022-09-28T17:56:51.069Z,99932.08
2022-09-28T17:59:20.816Z,99933.08
2022-09-28T18:01:50.696Z,99934.55
2022-09-28T18:04:40.149Z,99933.08
2022-09-28T18:06:51.833Z,99936.59
2022-09-28T18:09:23.362Z,99941.91
2022-09-28T18:11:56.129Z,99942.94
2022-09-28T18:14:25.702Z,99941.96
2022-09-28T18:16:55.413Z,99943.03
2022-09-28T18:19:28.556Z,99937.09
2022-09-28T18:21:58.141Z,99939.77
2022-09-28T18:24:27.871Z,99935.08
2022-09-28T18:26:57.629Z,99937.44
2022-09-28T18:29:31.024Z,99943.61
2022-09-28T18:31:58.593Z,99944.09
2022-09-28T18:34:28.087Z,99950.56
2022-09-28T18:36:57.858Z,99948.75
2022-09-28T18:39:27.353Z,99953.20
2022-09-28T18:41:57.215Z,99960.92
2022-09-28T18:44:27.352Z,99959.32
2022-09-28T18:46:57.144Z,99954.28
2022-09-28T18:49:26.970Z,99954.28
2022-09-28T18:51:57.352Z,99950.88
2022-09-28T18:54:27.086Z,99958.61
2022-09-28T18:56:57.721Z,99961.09
2022-09-28T18:59:27.813Z,99962.87
2022-09-28T19:01:57.625Z,99961.12
2022-09-28T19:04:27.055Z,99964.02
2022-09-28T19:06:56.850Z,99973.86
2022-09-28T19:09:26.670Z,99965.22
2022-09-28T19:11:56.402Z,99963.42
2022-09-28T19:14:25.828Z,99969.95
2022-09-28T19:16:55.839Z,99969.26
2022-09-28T19:19:25.861Z,99962.91
2022-09-28T19:21:55.971Z,99967.96
2022-09-28T19:24:25.748Z,99973.35
2022-09-28T19:26:55.503Z,99973.35
2022-09-28T19:29:25.687Z,99976.14
2022-09-28T19:31:56.622Z,99977.14
2022-09-28T19:34:28.086Z,99972.28
2022-09-28T19:36:58.368Z,99972.59
2022-09-28T19:39:28.089Z,99978.80
2022-09-28T19:41:59.666Z,99980.98
2022-09-28T19:44:31.105Z,99985.24
2022-09-28T19:47:07.480Z,99985.24
2022-09-28T19:49:39.042Z,99988.39
2022-09-28T19:52:15.316Z,99996.19
2022-09-28T19:54:49.192Z,99985.82
2022-09-28T19:57:19.541Z,99990.21
2022-09-28T19:59:52.626Z,99990.21
2022-09-28T20:02:21.859Z,99998.88
2022-09-28T20:04:51.607Z,99998.88
2022-09-28T20:07:22.107Z,99996.15
2022-09-28T20:09:51.841Z,100003.28
2022-09-28T20:12:22.195Z,100001.02
2022-09-28T20:14:51.918Z,100001.84
2022-09-28T20:17:21.801Z,99999.02
2022-09-28T20:19:51.802Z,99999.02
2022-09-28T20:22:21.497Z,100001.82
2022-09-28T20:24:51.200Z,99998.88
2022-09-28T20:27:25.498Z,100003.75
2022-09-28T20:29:52.666Z,100001.67
2022-09-28T20:32:22.408Z,100004.20
2022-09-28T20:34:52.134Z,100005.30
2022-09-28T20:37:23.134Z,100000.37
2022-09-28T20:39:53.341Z,99999.77
2022-09-28T20:42:23.186Z,100004.16
2022-09-28T20:44:52.953Z,100007.28
2022-09-28T20:47:22.688Z,100007.97
2022-09-28T20:49:52.434Z,100004.42
2022-09-28T20:52:22.764Z,100008.24
2022-09-28T20:54:52.497Z,100005.33
2022-09-28T20:57:22.220Z,99996.81
2022-09-28T20:59:54.702Z,99995.75
2022-09-28T21:02:23.569Z,99997.30
2022-09-28T21:04:54.092Z,100005.87
2022-09-28T21:07:24.381Z,99999.67
2022-09-28T21:09:54.111Z,100006.78
2022-09-28T21:12:25.198Z,100011.92
2022-09-28T21:14:54.898Z,100014.28
2022-09-28T21:17:24.654Z,100020.76
2022-09-28T21:19:54.199Z,100020.76
2022-09-28T21:22:24.095Z,100013.13
2022-09-28T21:24:53.846Z,100014.50
2022-09-28T21:27:23.599Z,100014.06
2022-09-28T21:29:53.658Z,100014.06
2022-09-28T21:32:23.246Z,100026.64
2022-09-28T21:34:53.039Z,100029.53
2022-09-28T21:37:22.788Z,100027.20
2022-09-28T21:39:52.887Z,100028.98
2022-09-28T21:42:22.628Z,100026.14
2022-09-28T21:44:55.302Z,100028.48
2022-09-28T21:47:23.864Z,100024.31
2022-09-28T21:49:53.707Z,100029.91
2022-09-28T21:52:23.129Z,100036.27
2022-09-28T21:54:52.867Z,100026.91
2022-09-28T21:57:22.594Z,100035.11
2022-09-28T21:59:52.218Z,100035.11
2022-09-28T22:02:22.546Z,100038.61
2022-09-28T22:04:52.577Z,100040.55
2022-09-28T22:07:22.297Z,100047.44
2022-09-28T22:09:53.591Z,100044.02
2022-09-28T22:12:23.135Z,100052.66
2022-09-28T22:14:52.866Z,100052.80
2022-09-28T22:17:22.683Z,100048.84
2022-09-28T22:19:52.414Z,100051.74
2022-09-28T22:22:24.369Z,100045.02
2022-09-28T22:24:54.824Z,100044.24
2022-09-28T22:27:24.726Z,100046.22
2022-09-28T22:29:54.277Z,100048.31
2022-09-28T22:32:24.043Z,100051.34
2022-09-28T22:34:53.856Z,100049.24
2022-09-28T22:37:24.454Z,100056.38
2022-09-28T22:39:56.111Z,100055.55
2022-09-28T22:42:25.872Z,100048.84
2022-09-28T22:44:55.616Z,100048.84
2022-09-28T22:47:25.349Z,100056.26
2022-09-28T22:49:55.111Z,100056.26
2022-09-28T22:54:56.260Z,100052.70
2022-09-28T22:57:25.995Z,100056.55
2022-09-28T22:59:55.741Z,100059.70
2022-09-28T23:02:25.591Z,100059.11
2022-09-28T23:04:55.642Z,100054.98
2022-09-28T23:07:26.135Z,100058.87
2022-09-28T23:09:57.546Z,100056.55
2022-09-28T23:12:27.706Z,100058.87
2022-09-28T23:14:57.505Z,100059.70
2022-09-28T23:17:27.525Z,100055.95
2022-09-28T23:19:57.540Z,100052.72
2022-09-28T23:22:26.999Z,100052.72
2022-09-28T23:24:56.794Z,100059.70
2022-09-28T23:27:26.533Z,100061.25
2022-09-28T23:29:56.742Z,100061.25
2022-09-28T23:32:29.820Z,100059.38
2022-09-28T23:34:58.008Z,100063.25
2022-09-28T23:37:27.899Z,100061.27
2022-09-28T23:39:57.603Z,100066.91
2022-09-28T23:42:27.055Z,100057.80
2022-09-28T23:44:56.789Z,100064.06
2022-09-28T23:47:26.591Z,100066.48
2022-09-28T23:49:56.031Z,100067.33
2022-09-28T23:52:25.658Z,100063.03
2022-09-28T23:54:55.392Z,100063.03
2022-09-28T23:57:25.452Z,100063.04
2022-09-28T23:59:55.507Z,100054.47
